Latest Weather Observations for Armidale Airport

IDN60801

Issued at 9:52 pm EDT Tuesday 27 February 2024 (issued every 10 minutes, with the page automatically refreshed every 10 minutes)

About weather observations | Map of weather stations | Latest weather observations for NSW | Other Formats
Station Details ID: 056238 Name: ARMIDALE AIRPORT AWS Lat: -30.53 Lon: 151.62 Height: 1079.0 m
Data from the previous 72 hours. | See also: Recent months at Armidale Airport
Date/Time
EDT
Temp
°C
App
Temp
°C
Dew
Point
°C
Rel
Hum
%
Delta-T
°C
Wind Press
QNH
hPa
Press
MSL
hPa
Rain since
9am
mm
Dir  Spd
km/h
Gust
km/h
Spd
kts
Gust
kts
27/09:30pm 18.1 17.4 17.3 95 0.5 E 17 22 9 12 1022.8 1017.1 5.8
27/09:00pm 18.3 17.3 17.5 95 0.5 E 19 24 10 13 1022.7 1017.0 5.6
27/08:30pm 18.4 18.1 17.4 94 0.6 E 15 20 8 11 1022.8 1017.1 5.6
27/08:00pm 19.0 18.4 17.5 91 1.0 E 17 20 9 11 1022.4 1016.7 5.6
27/07:30pm 19.6 18.9 17.4 87 1.4 E 17 24 9 13 1021.9 1016.2 5.6
27/07:00pm 20.5 19.8 17.3 82 2.0 E 17 24 9 13 1021.3 1015.5 5.6
27/06:30pm 20.8 20.3 17.8 83 1.9 E 17 24 9 13 1021.1 1015.4 5.6
27/06:00pm 20.9 20.4 17.9 83 1.9 NE 17 20 9 11 1020.9 1015.2 5.6
27/05:30pm 21.8 21.6 18.4 81 2.2 NE 17 20 9 11 1020.6 1014.8 5.6
27/05:00pm 21.4 21.9 19.3 88 1.4 NE 15 19 8 10 1020.7 1015.0 5.6
27/04:30pm 20.7 20.5 17.7 83 1.9 NE 15 20 8 11 1020.6 1014.8 5.6
27/04:00pm 20.7 21.3 17.7 83 1.9 E 11 13 6 7 1020.4 1014.6 5.6
27/03:39pm 19.4 18.9 17.0 86 1.5 SE 15 20 8 11 1020.4 1014.6 5.6
27/03:30pm 18.2 16.5 17.2 94 0.6 SE 22 48 12 26 1020.4 1014.6 5.6
27/03:25pm 17.5 13.0 16.4 93 0.7 SE 35 56 19 30 1020.3 1014.5 5.6
27/03:24pm 17.5 12.6 16.4 93 0.7 SSE 37 56 20 30 1020.1 1014.4 5.6
27/03:19pm 17.5 13.0 16.4 93 0.7 SSW 35 56 19 30 1020.6 1014.8 5.0
27/03:16pm 17.8 14.3 15.6 87 1.4 SSW 28 56 15 30 1020.8 1015.1 2.2
27/03:14pm 19.3 17.6 17.1 87 1.4 S 22 46 12 25 1020.8 1015.1 0.6
27/03:00pm 23.1 22.6 16.9 68 4.0 ESE 15 20 8 11 1020.4 1014.6 0.0
27/02:30pm 25.3 25.8 17.5 62 5.1 NE 11 15 6 8 1020.6 1014.8 0.0
27/02:00pm 24.2 24.2 17.2 65 4.5 ESE 13 19 7 10 1020.9 1015.2 0.0
27/01:30pm 24.7 25.6 18.4 68 4.2 ESE 11 17 6 9 1021.0 1015.3 0.0
27/01:00pm 24.0 23.8 17.5 67 4.2 E 15 22 8 12 1021.4 1015.6 0.0
27/12:30pm 23.6 23.6 17.3 67 4.1 ESE 13 24 7 13 1021.5 1015.7 0.0
27/12:00pm 22.8 22.8 17.3 71 3.5 ESE 13 19 7 10 1022.0 1016.3 0.0
27/11:30am 22.2 21.2 16.7 71 3.5 E 17 26 9 14 1022.2 1016.5 0.0
27/11:00am 21.0 19.4 16.0 73 3.1 E 19 26 10 14 1022.2 1016.5 0.0
27/10:32am 20.5 19.2 15.9 75 2.9 ENE 17 24 9 13 1022.5 1016.8 0.0
27/10:30am 20.7 19.4 15.9 74 3.0 ENE 17 24 9 13 1022.5 1016.8 0.0
27/10:18am 20.6 19.0 16.4 77 2.7 ENE 20 26 11 14 1022.6 1016.9 0.0
27/10:15am 20.5 18.9 16.5 78 2.5 ENE 20 28 11 15 1022.6 1016.9 0.0
27/10:00am 20.9 19.5 16.5 76 2.8 E 19 26 10 14 1022.6 1016.9 0.0
27/09:55am 20.8 19.6 17.0 79 2.4 E 19 26 10 14 1022.6 1016.9 0.0
27/09:30am 19.6 17.5 16.1 80 2.2 E 22 28 12 15 1022.5 1016.8 0.0
27/09:00am 18.2 15.6 14.9 81 2.0 E 22 30 12 16 1022.4 1016.7 0.2
27/08:30am 18.2 16.3 15.1 82 1.9 E 19 24 10 13 1022.1 1016.4 0.2
27/08:19am 17.6 15.6 14.9 84 1.6 E 19 22 10 12 1022.0 1016.3 0.2
27/08:00am 17.0 15.1 14.3 84 1.6 E 17 22 9 12 1022.0 1016.3 0.2
27/07:30am 16.0 14.4 14.0 88 1.2 E 15 19 8 10 1021.5 1015.7 0.2
27/07:00am 15.4 13.8 13.9 91 0.9 E 15 17 8 9 1021.1 1015.4 0.2
27/06:56am 15.3 13.7 13.8 91 0.9 E 15 20 8 11 1021.0 1015.3 0.2
27/06:30am 15.2 13.5 13.6 90 0.9 ENE 15 17 8 9 1020.8 1015.1 0.2
27/06:00am 15.3 13.8 14.3 94 0.6 ENE 15 17 8 9 1020.5 1014.7 0.2
27/05:30am 15.4 14.1 14.8 96 0.4 ENE 15 19 8 10 1020.3 1014.5 0.2
27/05:00am 15.7 14.5 15.1 96 0.4 ENE 15 19 8 10 1020.0 1014.3 0.2
27/04:30am 15.9 14.6 14.9 94 0.6 ENE 15 20 8 11 1019.9 1014.2 0.2
27/04:00am 16.1 14.2 15.1 94 0.6 E 19 24 10 13 1020.0 1014.3 0.2
27/03:30am 15.9 13.9 14.9 94 0.6 E 19 24 10 13 1020.3 1014.5 0.2
27/03:00am 16.1 13.9 15.0 93 0.7 E 20 26 11 14 1020.3 1014.5 0.2
27/02:30am 16.2 14.1 14.7 91 0.9 E 19 26 10 14 1020.4 1014.6 0.2
27/02:00am 16.2 13.6 13.7 85 1.5 E 20 26 11 14 1020.6 1014.8 0.2
27/01:30am 16.4 14.8 12.9 80 2.1 E 13 20 7 11 1020.9 1015.2 0.2
27/01:00am 16.8 14.8 12.7 77 2.4 E 15 19 8 10 1020.8 1015.1 0.2
27/12:30am 17.0 15.1 12.9 77 2.4 E 15 19 8 10 1021.0 1015.3 0.2
27/12:00am 17.3 15.5 13.4 78 2.3 ENE 15 19 8 10 1021.0 1015.3 0.2
 
Date/Time
EDT
Temp
°C
App
Temp
°C
Dew
Point
°C
Rel
Hum
%
Delta-T
°C
Wind Press
QNH
hPa
Press
MSL
hPa
Rain since
9am
mm
Dir  Spd
km/h
Gust
km/h
Spd
kts
Gust
kts
26/11:30pm 17.8 15.7 13.5 76 2.6 ENE 17 20 9 11 1021.1 1015.4 0.2
26/11:00pm 18.5 15.5 13.8 74 2.8 ENE 22 28 12 15 1021.1 1015.4 0.2
26/10:30pm 19.0 16.3 15.7 81 2.1 E 24 32 13 17 1021.0 1015.3 0.2
26/10:00pm 19.9 18.1 16.9 83 1.9 E 22 30 12 16 1020.6 1014.8 0.2
26/09:30pm 19.9 19.6 17.3 85 1.7 ENE 15 22 8 12 1020.5 1014.7 0.2
26/09:00pm 20.5 20.5 17.1 81 2.2 ENE 13 20 7 11 1020.0 1014.3 0.2
26/08:30pm 21.1 20.2 16.9 77 2.7 ENE 17 20 9 11 1019.6 1013.8 0.2
26/08:00pm 22.1 21.2 16.8 72 3.4 E 17 22 9 12 1019.0 1013.3 0.2
26/07:30pm 23.6 22.7 15.9 62 4.9 ESE 15 26 8 14 1018.6 1012.8 0.2
26/07:00pm 25.3 24.6 13.2 47 7.4 SSW 9 11 5 6 1018.3 1012.5 0.2
26/06:30pm 25.7 25.4 13.2 46 7.7 S 7 11 4 6 1018.1 1012.4 0.2
26/06:00pm 27.2 25.6 11.7 38 9.3 SSE 11 19 6 10 1017.9 1012.1 0.2
26/05:30pm 27.4 25.1 11.8 38 9.4 SSE 15 20 8 11 1017.8 1012.0 0.2
26/05:00pm 27.2 25.1 11.3 37 9.5 SSW 13 20 7 11 1017.9 1012.1 0.2
26/04:30pm 27.6 25.1 13.5 41 8.7 SW 19 26 10 14 1017.9 1012.1 0.2
26/04:00pm 25.9 23.8 13.7 47 7.5 SW 17 24 9 13 1018.3 1012.5 0.2
26/03:30pm 26.7 25.2 14.1 46 7.9 WSW 15 19 8 10 1018.5 1012.7 0.2
26/03:00pm 27.7 25.6 16.3 49 7.4 SW 22 32 12 17 1018.7 1012.9 0.2
26/02:30pm 25.2 23.4 13.4 48 7.2 WSW 15 20 8 11 1019.0 1013.3 0.2
26/02:00pm 25.5 24.0 15.2 53 6.5 WSW 17 24 9 13 1019.4 1013.6 0.2
26/01:30pm 26.7 26.3 18.0 59 5.7 W 17 28 9 15 1019.5 1013.7 0.2
26/01:00pm 25.5 24.2 16.9 59 5.6 WNW 19 24 10 13 1019.8 1014.0 0.2
26/12:30pm 24.4 23.6 17.1 63 4.7 WNW 17 24 9 13 1020.0 1014.3 0.2
26/12:00pm 24.4 24.1 18.3 69 4.0 W 17 24 9 13 1020.7 1015.0 0.2
26/11:30am 23.1 22.3 18.0 73 3.3 WNW 19 26 10 14 1020.8 1015.1 0.2
26/11:00am 22.4 21.0 18.0 76 2.9 W 22 28 12 15 1020.6 1014.8 0.2
26/10:30am 21.6 19.4 17.8 79 2.5 W 26 33 14 18 1020.7 1015.0 0.2
26/10:00am 21.5 19.6 17.7 79 2.5 W 24 32 13 17 1020.7 1015.0 0.0
26/09:30am 21.0 19.1 17.6 81 2.2 W 24 33 13 18 1020.6 1014.8 0.0
26/09:19am 20.6 19.2 17.0 80 2.3 WNW 20 30 11 16 1020.5 1014.7 0.0
26/09:00am 20.1 20.4 17.9 87 1.4 W 13 19 7 10 1020.3 1014.5 0.0
26/08:30am 18.7 19.4 17.0 90 1.1 WNW 9 11 5 6 1020.0 1014.3 0.0
26/08:00am 16.9 17.9 16.3 96 0.4 WNW 6 7 3 4 1019.8 1014.0 0.0
26/07:30am 15.3 15.6 15.0 98 0.2 W 7 9 4 5 1019.6 1013.8 0.0
26/07:00am 13.7 14.8 13.4 98 0.2 CALM 0 0 0 0 1019.4 1013.6 0.0
26/06:30am 13.6 14.3 13.3 98 0.2 S 2 6 1 3 1018.9 1013.1 0.0
26/06:17am 13.7 13.4 13.4 98 0.2 S 7 9 4 5 1018.8 1013.0 0.0
26/06:00am 14.0 13.8 13.7 98 0.2 S 7 9 4 5 1018.7 1012.9 0.0
26/05:51am 14.0 13.8 13.7 98 0.2 S 7 9 4 5 1018.6 1012.8 0.0
26/05:48am 13.9 13.7 13.6 98 0.2 S 7 9 4 5 1018.6 1012.8 0.0
26/05:30am 13.1 13.9 12.6 97 0.3 CALM 0 0 0 0 1018.4 1012.6 0.0
26/05:16am 13.1 13.9 12.6 97 0.3 CALM 0 0 0 0 1018.4 1012.6 0.0
26/05:13am 13.0 13.8 12.4 96 0.3 CALM 0 0 0 0 1018.3 1012.5 0.0
26/05:09am 13.1 13.9 12.5 96 0.3 CALM 0 0 0 0 1018.3 1012.5 0.0
26/05:00am 13.2 14.0 12.6 96 0.3 CALM 0 0 0 0 1018.1 1012.4 0.0
26/04:39am 14.4 15.6 13.9 97 0.3 CALM 0 0 0 0 1018.1 1012.4 0.0
26/04:30am 14.5 15.5 14.2 98 0.2 ENE 2 7 1 4 1017.9 1012.1 0.0
26/04:00am 14.6 14.2 14.1 97 0.3 ENE 9 11 5 6 1017.8 1012.0 0.0
26/03:30am 15.1 14.9 14.6 97 0.3 ENE 9 9 5 5 1018.0 1012.2 0.0
26/03:00am 15.6 15.6 15.1 97 0.3 ENE 9 11 5 6 1018.1 1012.4 0.0
26/02:30am 15.7 14.6 15.2 97 0.3 ENE 15 17 8 9 1018.5 1012.7 0.0
26/02:00am 16.0 15.0 15.5 97 0.3 ENE 15 17 8 9 1018.6 1012.8 0.0
26/01:30am 16.3 15.3 15.7 96 0.4 NE 15 17 8 9 1019.0 1013.3 0.0
26/01:26am 16.3 15.3 15.7 96 0.4 NE 15 19 8 10 1019.0 1013.3 0.0
26/01:00am 16.9 15.7 16.1 95 0.5 ENE 17 22 9 12 1019.3 1013.5 0.0
26/12:30am 16.7 15.5 16.1 96 0.4 E 17 19 9 10 1019.5 1013.7 0.0
26/12:00am 16.9 16.2 16.3 96 0.4 E 15 19 8 10 1019.8 1014.0 0.0
 
Date/Time
EDT
Temp
°C
App
Temp
°C
Dew
Point
°C
Rel
Hum
%
Delta-T
°C
Wind Press
QNH
hPa
Press
MSL
hPa
Rain since
9am
mm
Dir  Spd
km/h
Gust
km/h
Spd
kts
Gust
kts
25/11:31pm 16.7 16.3 16.1 96 0.4 E 13 17 7 9 1019.7 1013.9 0.0
25/11:30pm 16.6 16.1 16.0 96 0.4 E 13 17 7 9 1019.8 1014.0 0.0
25/11:04pm 16.6 16.1 15.8 95 0.5 ESE 13 15 7 8 1019.7 1013.9 0.0
25/11:00pm 16.7 16.2 15.9 95 0.5 ESE 13 19 7 10 1019.7 1013.9 0.0
25/10:30pm 17.1 15.9 16.1 94 0.6 ESE 17 22 9 12 1019.8 1014.0 0.0
25/10:07pm 17.0 15.8 16.0 94 0.6 ESE 17 20 9 11 1020.0 1014.3 0.0
25/10:00pm 17.0 15.7 15.9 93 0.7 ESE 17 22 9 12 1020.0 1014.3 0.0
25/09:30pm 17.3 15.7 16.0 92 0.8 E 19 24 10 13 1019.8 1014.0 0.0
25/09:00pm 17.7 16.1 16.0 90 1.1 ENE 19 26 10 14 1019.7 1013.9 0.0
25/08:30pm 18.3 16.7 16.1 87 1.4 E 19 22 10 12 1019.4 1013.6 0.0
25/08:00pm 19.1 17.3 16.1 83 1.9 ENE 20 28 11 15 1018.9 1013.1 0.0
25/07:30pm 20.0 18.4 16.0 78 2.5 E 19 22 10 12 1018.7 1012.9 0.0
25/07:00pm 21.0 19.5 16.2 74 3.0 ENE 19 22 10 12 1018.3 1012.5 0.0
25/06:30pm 22.8 21.2 16.6 68 4.0 ENE 20 26 11 14 1017.9 1012.1 0.0
25/06:00pm 24.1 23.9 16.6 63 4.8 E 13 19 7 10 1017.8 1012.0 0.0
25/05:30pm 24.0 23.0 16.5 63 4.8 ESE 17 24 9 13 1017.7 1011.9 0.0
25/05:00pm 24.6 24.2 16.1 59 5.4 E 13 20 7 11 1017.6 1011.8 0.0
25/04:30pm 24.8 24.4 16.2 58 5.5 SE 13 20 7 11 1017.6 1011.8 0.0
25/04:00pm 24.7 24.5 15.6 57 5.8 E 11 20 6 11 1017.8 1012.0 0.0
25/03:30pm 24.2 24.0 16.7 63 4.8 ESE 13 20 7 11 1018.3 1012.5 0.0
25/03:00pm 23.7 22.4 15.7 61 5.0 E 17 22 9 12 1018.6 1012.8 0.0
25/02:30pm 22.8 22.3 15.9 65 4.4 E 13 19 7 10 1019.0 1013.3 0.0
25/02:00pm 23.8 23.3 16.8 65 4.5 E 15 24 8 13 1019.5 1013.7 0.0
25/01:30pm 23.1 22.2 15.9 64 4.6 ENE 15 22 8 12 1019.8 1014.0 0.0
25/01:00pm 22.0 20.8 16.1 69 3.7 E 17 24 9 13 1020.5 1014.7 0.0
25/12:30pm 21.5 19.9 16.5 73 3.2 ENE 20 26 11 14 1020.9 1015.2 0.0
25/12:00pm 21.5 19.6 16.7 74 3.1 ENE 22 30 12 16 1021.1 1015.4 0.0
25/11:30am 20.5 18.6 15.7 74 3.0 ENE 20 28 11 15 1021.0 1015.3 0.0
25/11:25am 21.2 19.8 16.6 75 2.9 E 19 26 10 14 1021.0 1015.3 0.0
25/11:00am 21.1 19.8 17.3 79 2.4 E 20 28 11 15 1021.1 1015.4 0.0
25/10:30am 18.8 17.2 16.0 84 1.7 E 19 30 10 16 1021.1 1015.4 0.0
25/10:00am 18.8 17.2 16.4 86 1.5 E 20 30 11 16 1021.3 1015.5 0.0
25/09:30am 17.8 16.3 16.3 91 0.9 E 19 24 10 13 1021.3 1015.5 0.0
25/09:00am 17.0 15.4 16.0 94 0.6 E 19 24 10 13 1021.0 1015.3 3.0
25/08:30am 16.5 14.7 15.9 96 0.4 E 20 24 11 13 1020.9 1015.2 3.0
25/08:00am 16.3 14.6 15.7 96 0.4 E 19 26 10 14 1020.9 1015.2 3.0
25/07:44am 16.1 14.7 15.5 96 0.4 ESE 17 26 9 14 1020.7 1015.0 3.0
25/07:30am 16.0 14.6 15.5 97 0.3 E 17 22 9 12 1020.7 1015.0 3.0
25/07:21am 16.0 14.5 15.4 96 0.4 E 17 20 9 11 1020.7 1015.0 3.0
25/07:00am 16.0 14.5 15.4 96 0.4 ESE 17 22 9 12 1020.4 1014.6 3.0
25/06:30am 16.0 15.0 15.5 97 0.3 ESE 15 20 8 11 1020.0 1014.3 3.0
25/06:20am 16.0 15.3 15.5 97 0.3 ESE 13 19 7 10 1020.0 1014.3 3.0
25/06:03am 16.1 14.7 15.5 96 0.4 E 17 20 9 11 1020.0 1014.3 3.0
25/06:00am 16.1 15.0 15.3 95 0.5 E 15 20 8 11 1020.0 1014.3 3.0
25/05:30am 16.3 15.2 15.3 94 0.6 ESE 15 20 8 11 1019.8 1014.0 3.0
25/05:00am 16.3 14.4 15.2 93 0.7 ESE 19 26 10 14 1019.5 1013.7 3.0
25/04:30am 16.2 14.7 15.4 95 0.5 ESE 17 28 9 15 1019.5 1013.7 3.0
25/04:00am 16.2 15.1 15.4 95 0.5 ESE 15 20 8 11 1019.5 1013.7 3.0
25/03:30am 16.3 14.8 15.3 94 0.6 ESE 17 24 9 13 1019.4 1013.6 3.0
25/03:00am 16.4 14.9 15.4 94 0.6 ESE 17 24 9 13 1019.7 1013.9 3.0
25/02:30am 16.6 15.2 15.5 93 0.7 ESE 17 22 9 12 1019.9 1014.2 3.0
25/02:00am 16.6 15.1 15.3 92 0.8 ESE 17 22 9 12 1020.1 1014.4 3.0
25/01:30am 16.7 15.2 15.4 92 0.8 ESE 17 24 9 13 1020.4 1014.6 3.0
25/01:00am 16.8 15.8 15.5 92 0.8 E 15 22 8 12 1020.6 1014.8 3.0
25/12:30am 16.9 15.5 15.6 92 0.8 ESE 17 26 9 14 1020.5 1014.7 3.0
25/12:00am 16.9 15.1 15.6 92 0.8 ESE 19 28 10 15 1020.5 1014.7 3.0
 
Date/Time
EDT
Temp
°C
App
Temp
°C
Dew
Point
°C
Rel
Hum
%
Delta-T
°C
Wind Press
QNH
hPa
Press
MSL
hPa
Rain since
9am
mm
Dir  Spd
km/h
Gust
km/h
Spd
kts
Gust
kts
24/11:59pm 16.9 15.1 15.6 92 0.8 ESE 19 28 10 15 1020.5 1014.7 3.0
24/11:44pm 16.9 15.2 15.8 93 0.7 ESE 19 26 10 14 1020.5 1014.7 3.0
24/11:30pm 17.0 15.2 15.9 93 0.7 ESE 20 30 11 16 1020.5 1014.7 3.0
24/11:00pm 17.1 15.3 16.1 94 0.6 ESE 20 32 11 17 1020.6 1014.8 3.0
24/10:30pm 17.2 15.6 16.6 96 0.4 ESE 20 28 11 15 1021.0 1015.3 3.0
24/10:00pm 17.4 16.5 16.8 96 0.4 ESE 17 24 9 13 1020.6 1014.8 3.0

Other formats

Comma delimited format used in spreadsheet applications
http://www.bom.gov.au/fwo/IDN60801/IDN60801.95773.axf

JavaScript Object Notation format (JSON) in row-major order
http://www.bom.gov.au/fwo/IDN60801/IDN60801.95773.json

Data quality

Most of these data are generated automatically and are frequently updated. Quality checks on data are not normally performed. It is possible for incorrect values to appear. Refer to information at About Latest Weather Observations and please check the disclaimer before using these data.